Stuart, FL (34997)

10:22 PM EST on March 02, 2015 (GMT -0500)
Parkwood | Change Station
CLOSE
Current Station
Personal Weather Station
Location: Stuart, FL
Elevation: 26 ft
Nearby Weather Stations

Elev 26 ft 27.12 °N, 80.20 °W | Updated 12 minutes ago

Scattered Clouds
Scattered Clouds
70.6 °F
Feels Like 70.6 °F
N
0.0
Wind Variable Wind from ENE
Gusts 0.0 mph

Today
High -- | Low -- °F
--% Chance of Precip.
Yesterday
High -- | Low -- °F
Precip. -- in
6:44 AM 6:22 PM
Waxing Gibbous, 94% visible
Pressure 30.25 in
Visibility 10.0 miles
Clouds Scattered Clouds 2000 ft
Dew Point 65 °F
Humidity 84%
Rainfall 0.00 in
Snow Depth Not available.
UV 0 out of 12
Pollen 10.60 out of 12
Air Quality Not available.
Flu Activity Not available.
METAR KSUA 030315Z AUTO 00000KT 10SM SCT020 21/18 A3025 RMK AO2

More Conditions Fewer Conditions

Pressure 30.25 in
Visibility 10.0 miles
Clouds Scattered Clouds 2000 ft
Dew Point 65 °F
Humidity 84%
Rainfall 0.00 in
Snow Depth Not available.
UV 0 out of 12
Pollen 10.60 out of 12
Air Quality Not available.
Flu Activity Not available.
METAR KSUA 030315Z AUTO 00000KT 10SM SCT020 21/18 A3025 RMK AO2

More Conditions Fewer Conditions

Nowcast | as of 6:00 PM EST on March 2, 2015

With the loss of heating after the setting sun...patches of dense marine fog over the nearshore Atlantic waters will spread over the barrier islands and eventually across the Mainland this evening. The fog will first move onshore Volusia County and the cape early this evening and then into much of Volusia County and the space coast by mid evening. The fog will spread further west and south later this evening to encompass much of Metro Orlando before midnight. While the fog spreads over land...it will also thicken up and become quite dense at times. Visibilities at times will go below one quarter mile by mid evening along the coast of Volusia and Brevard counties and by midnight over the interior. Lowering visibilities can make travel difficult...and motorists are encouraged to give themselves extra time to reach their destinations. Always use just low beam headlights when driving through fog.

×

10-Day Weather Forecast

Almanac

Astronomy

Mar. 02, 2015 Rise Set
Actual Time
Civil Twilight
Nautical Twilight
Astronomical Twilight
Moon
Length of Visible Light
Length of Day
Tomorrow will be .
, % of the Moon is Illuminated

Today's Extremes

State Highs State Lows

Community

WunderPhotos

Upload Photos

1,802,057 photos uploaded!

WunderBlogs® & News

Nearby

Air Quality

  Air Quality AQ Index Pollutant
Not available.

Snow Depth

Station Depth Elevation

Earthquake Activity

City Distance Mag. Time & Date
Minimum magnitude displayed is 2.5.

Coastal Water Temperatures

Place Temperature

Nearby Weather Stations